Thunder radar more information blitzortung!


Löydät sääaseman tiedot myös:

European Weather Network

Finland Weather Exchange

Weather Underground

AWEKAS



Weather Underground säähistoriasivu

Päivittäin yhteenveto Heinäkuu 24, 2017 Yksiköt:  Englantilaiset    Metriset   Molemmat
« Edellinen Päivä
Seuraava Päivä »
Päivittäin Viikoittain Kuukausittain Vuosittain Mukautettu
  Korkea: Matala: Keskiarvo:
Lämpötila: TemperatureC °F 11.6 °F 14.8 °F
Kastepiste: DewpointC °F 10.8 °F 13.1 °F
Kosteus: Humidity % 75 % 89 %
Tuulen nopeus: WindSpeedKMH mph 0.0 mph 0.1 mph
Tuulenpuuska: WindSpeedGustKMH mph - -
Tuuli:- - West
Ilmanpaine: PressurehPa in 1012.4 in -
Sade: 0.3 in    
Historical Graphs
 
 
Taulukkotiedot Heinäkuu 24, 2017
Aika Lämpötila Kastepiste Ilmanpaine Tuuli Tuulen nopeus Tuulenpuuska Kosteus Sademäärä (tunneittain)
TemperatureC °F DewpointC °F PressurehPa in Calm     Humidity % HourlyPrecipMM in
00:00 13.4 °F 12.2 °F 1016.5 in Calm     92 % 0.0 in
00:05 13.3 °F 12.1 °F 1016.5 in Calm     92 % 0.0 in
00:10 13.3 °F 12.0 °F 1016.5 in Calm     92 % 0.0 in
00:15 13.2 °F 11.9 °F 1016.5 in Calm     92 % 0.0 in
00:20 13.0 °F 11.7 °F 1016.5 in Calm     92 % 0.0 in
00:25 12.8 °F 11.6 °F 1016.5 in Calm     92 % 0.0 in
00:30 12.7 °F 11.4 °F 1016.5 in Calm     92 % 0.0 in
00:35 12.6 °F 11.5 °F 1016.5 in Calm     93 % 0.0 in
00:40 12.5 °F 11.4 °F 1016.5 in Calm     93 % 0.0 in
00:45 12.4 °F 11.3 °F 1016.5 in Calm     93 % 0.0 in
00:50 12.3 °F 11.2 °F 1016.5 in Calm     93 % 0.0 in
00:55 12.2 °F 11.1 °F 1016.5 in Calm     93 % 0.0 in
01:00 12.2 °F 11.1 °F 1016.5 in Calm     93 % 0.0 in
01:05 12.2 °F 11.2 °F 1016.5 in Calm     94 % 0.0 in
01:10 12.1 °F 11.1 °F 1016.5 in Calm     94 % 0.0 in
01:15 12.0 °F 11.1 °F 1016.1 in Calm   1.6 mph 94 % 0.0 in
01:20 12.0 °F 11.1 °F 1016.1 in Calm   1.6 mph 94 % 0.0 in
01:25 12.0 °F 11.1 °F 1016.1 in Calm   1.6 mph 94 % 0.0 in
01:30 12.0 °F 11.1 °F 1016.1 in Calm     94 % 0.0 in
01:35 11.9 °F 11.0 °F 1016.1 in Calm     94 % 0.0 in
01:40 11.9 °F 10.9 °F 1016.1 in Calm     94 % 0.0 in
01:45 11.8 °F 11.1 °F 1016.1 in Calm     95 % 0.0 in
01:50 11.8 °F 11.1 °F 1016.1 in Calm     95 % 0.0 in
01:55 11.8 °F 11.0 °F 1016.1 in Calm     95 % 0.0 in
02:00 11.8 °F 11.0 °F 1016.1 in Calm     95 % 0.0 in
02:05 11.8 °F 11.0 °F 1016.1 in Calm     95 % 0.0 in
02:10 11.7 °F 10.9 °F 1016.1 in Calm     95 % 0.0 in
02:15 11.7 °F 10.9 °F 1015.8 in Calm     95 % 0.0 in
02:20 11.7 °F 10.9 °F 1015.8 in Calm     95 % 0.0 in
02:25 11.6 °F 10.8 °F 1015.8 in Calm     95 % 0.0 in
02:30 11.6 °F 10.8 °F 1016.1 in Calm     95 % 0.0 in
02:35 11.6 °F 10.8 °F 1016.1 in Calm     95 % 0.0 in
02:40 11.6 °F 10.8 °F 1015.8 in Calm     95 % 0.0 in
02:45 11.6 °F 10.8 °F 1015.8 in Calm     95 % 0.0 in
02:50 11.6 °F 10.9 °F 1015.8 in Calm     96 % 0.0 in
02:55 11.6 °F 11.0 °F 1015.8 in Calm     96 % 0.0 in
03:00 11.7 °F 11.1 °F 1015.8 in Calm     96 % 0.0 in
03:05 11.8 °F 11.2 °F 1015.8 in Calm   1.6 mph 96 % 0.0 in
03:10 11.8 °F 11.2 °F 1015.8 in Calm   1.6 mph 96 % 0.0 in
03:15 11.9 °F 11.3 °F 1015.8 in Calm   1.6 mph 96 % 0.0 in
03:20 11.9 °F 11.3 °F 1015.8 in Calm   1.6 mph 96 % 0.0 in
03:25 12.0 °F 11.4 °F 1015.8 in Calm   1.6 mph 96 % 0.0 in
03:30 12.1 °F 11.3 °F 1015.8 in Calm   3.2 mph 95 % 0.0 in
03:35 12.1 °F 11.3 °F 1015.8 in Calm   3.2 mph 95 % 0.0 in
03:40 12.1 °F 11.3 °F 1015.5 in Calm   1.6 mph 95 % 0.0 in
03:45 12.1 °F 11.3 °F 1015.5 in Calm   1.6 mph 95 % 0.0 in
03:50 12.1 °F 11.3 °F 1015.5 in Calm   1.6 mph 95 % 0.0 in
03:55 12.1 °F 11.3 °F 1015.5 in Calm   1.6 mph 95 % 0.0 in
04:00 12.1 °F 11.3 °F 1015.5 in Calm     95 % 0.0 in
04:05 12.0 °F 11.1 °F 1015.5 in Calm     94 % 0.0 in
04:10 11.9 °F 11.0 °F 1015.5 in Calm   1.6 mph 94 % 0.0 in
04:15 11.9 °F 11.0 °F 1015.5 in Calm   3.2 mph 94 % 0.0 in
04:20 11.9 °F 10.9 °F 1015.5 in Calm   3.2 mph 94 % 0.0 in
04:25 11.8 °F 10.9 °F 1015.5 in Calm   3.2 mph 94 % 0.0 in
04:30 11.8 °F 10.8 °F 1015.1 in Calm     94 % 0.0 in
04:35 11.7 °F 10.9 °F 1015.1 in Calm     95 % 0.0 in
04:40 11.7 °F 10.9 °F 1015.1 in Calm     95 % 0.0 in
04:45 11.7 °F 10.9 °F 1015.1 in Calm     95 % 0.0 in
04:50 11.7 °F 10.9 °F 1015.1 in Calm     95 % 0.0 in
04:55 11.8 °F 11.0 °F 1015.1 in Calm     95 % 0.0 in
05:00 11.8 °F 11.0 °F 1015.1 in Calm     95 % 0.0 in
05:05 11.8 °F 11.0 °F 1015.1 in Calm     95 % 0.0 in
05:10 11.8 °F 11.0 °F 1015.1 in Calm     95 % 0.0 in
05:15 11.8 °F 11.1 °F 1015.1 in Calm   1.6 mph 95 % 0.0 in
05:20 11.9 °F 11.1 °F 1015.1 in Calm   1.6 mph 95 % 0.0 in
05:25 11.9 °F 11.2 °F 1015.1 in Calm     95 % 0.0 in
05:30 12.0 °F 11.2 °F 1015.1 in Calm     95 % 0.0 in
05:35 12.1 °F 11.3 °F 1015.1 in Calm   1.6 mph 95 % 0.0 in
05:40 12.1 °F 11.3 °F 1015.1 in Calm   1.6 mph 95 % 0.0 in
05:45 12.2 °F 11.4 °F 1014.8 in Calm   1.6 mph 95 % 0.0 in
05:50 12.2 °F 11.4 °F 1014.8 in Calm   3.2 mph 95 % 0.3 in
05:55 12.3 °F 11.5 °F 1014.8 in Calm   4.8 mph 95 % 0.3 in
06:00 12.3 °F 11.5 °F 1014.8 in Calm   4.8 mph 95 % 0.3 in
06:05 12.3 °F 11.6 °F 1014.8 in Calm   4.8 mph 95 % 0.3 in
06:10 12.3 °F 11.7 °F 1014.8 in Calm     96 % 0.3 in
06:15 12.4 °F 11.8 °F 1014.8 in Calm     96 % 0.3 in
06:20 12.4 °F 11.8 °F 1014.4 in Calm     96 % 0.3 in
06:25 12.4 °F 11.8 °F 1014.4 in Calm     96 % 0.3 in
06:30 12.4 °F 11.8 °F 1014.4 in Calm     96 % 0.3 in
06:35 12.4 °F 11.8 °F 1014.4 in Calm     96 % 0.3 in
06:40 12.4 °F 11.8 °F 1014.4 in Calm     96 % 0.3 in
06:45 12.5 °F 11.9 °F 1014.4 in Calm     96 % 0.3 in
06:50 12.5 °F 11.9 °F 1014.1 in Calm     96 % 0.0 in
06:55 12.6 °F 11.9 °F 1014.1 in Calm     96 % 0.0 in
07:00 12.6 °F 12.0 °F 1013.8 in Calm   1.6 mph 96 % 0.0 in
07:05 12.7 °F 12.1 °F 1013.8 in Calm   1.6 mph 96 % 0.0 in
07:10 12.7 °F 11.9 °F 1014.1 in Calm     95 % 0.0 in
07:15 12.7 °F 11.9 °F 1013.8 in Calm   4.8 mph 95 % 0.0 in
07:20 12.7 °F 11.9 °F 1013.8 in Calm   4.8 mph 95 % 0.0 in
07:25 12.7 °F 11.9 °F 1013.8 in Calm   3.2 mph 95 % 0.0 in
07:30 12.7 °F 11.9 °F 1013.8 in Calm   3.2 mph 95 % 0.0 in
07:35 12.7 °F 11.9 °F 1013.8 in Calm   3.2 mph 95 % 0.0 in
07:40 12.7 °F 11.9 °F 1013.8 in Calm     95 % 0.0 in
07:45 12.7 °F 11.9 °F 1013.8 in Calm   1.6 mph 95 % 0.0 in
07:50 12.8 °F 12.0 °F 1013.8 in Calm   1.6 mph 95 % 0.0 in
07:55 12.8 °F 12.1 °F 1013.8 in Calm     95 % 0.0 in
08:00 12.9 °F 12.1 °F 1013.8 in Calm     95 % 0.0 in
08:05 12.9 °F 12.2 °F 1013.8 in Calm     95 % 0.0 in
08:10 12.9 °F 12.2 °F 1013.8 in Calm   4.8 mph 95 % 0.0 in
08:15 13.0 °F 12.2 °F 1013.8 in Calm   4.8 mph 95 % 0.0 in
08:20 13.1 °F 12.3 °F 1013.8 in Calm   4.8 mph 95 % 0.0 in
08:25 13.1 °F 12.3 °F 1013.8 in Calm     95 % 0.0 in
08:30 13.1 °F 12.3 °F 1013.4 in Calm   1.6 mph 95 % 0.0 in
08:35 13.2 °F 12.4 °F 1013.4 in Calm   1.6 mph 95 % 0.0 in
08:40 13.2 °F 12.4 °F 1013.4 in Calm   1.6 mph 95 % 0.0 in
08:45 13.3 °F 12.5 °F 1013.4 in Calm   1.6 mph 95 % 0.0 in
08:50 13.3 °F 12.3 °F 1013.4 in Calm   3.2 mph 94 % 0.0 in
08:55 13.3 °F 12.4 °F 1013.8 in Calm   3.2 mph 94 % 0.0 in
09:00 13.4 °F 12.6 °F 1013.8 in Calm     95 % 0.0 in
09:05 13.4 °F 12.7 °F 1013.8 in Calm     95 % 0.0 in
09:10 13.5 °F 12.6 °F 1013.4 in Calm   3.2 mph 94 % 0.0 in
09:15 13.5 °F 12.7 °F 1013.4 in Calm   3.2 mph 95 % 0.0 in
09:20 13.6 °F 12.6 °F 1013.4 in Calm   3.2 mph 94 % 0.0 in
09:25 13.6 °F 12.7 °F 1013.4 in Calm   1.6 mph 94 % 0.0 in
09:30 13.6 °F 12.7 °F 1013.4 in Calm   1.6 mph 94 % 0.0 in
09:35 13.7 °F 12.7 °F 1013.4 in Calm   1.6 mph 94 % 0.0 in
09:40 13.7 °F 12.8 °F 1013.4 in Calm   6.4 mph 94 % 0.0 in
09:45 13.8 °F 12.8 °F 1013.1 in Calm   6.4 mph 94 % 0.0 in
09:50 13.8 °F 12.9 °F 1013.1 in Calm   6.4 mph 94 % 0.0 in
09:55 13.9 °F 13.0 °F 1013.1 in Calm   6.4 mph 94 % 0.0 in
10:00 13.9 °F 13.0 °F 1013.1 in NW 1.6 mph 6.4 mph 94 % 0.0 in
10:05 14.0 °F 13.1 °F 1013.1 in Calm   4.8 mph 94 % 0.0 in
10:10 14.1 °F 13.2 °F 1013.1 in NW 1.6 mph 4.8 mph 94 % 0.0 in
10:15 14.2 °F 13.3 °F 1013.1 in Calm   4.8 mph 94 % 0.0 in
10:20 14.4 °F 13.3 °F 1013.1 in NW 1.6 mph 8.0 mph 93 % 0.0 in
10:25 14.5 °F 13.4 °F 1013.1 in WNW 1.6 mph 8.0 mph 93 % 0.0 in
10:30 14.7 °F 13.4 °F 1013.1 in WNW 1.6 mph 8.0 mph 92 % 0.0 in
10:35 14.8 °F 13.7 °F 1013.1 in Calm   8.0 mph 93 % 0.0 in
10:40 14.9 °F 13.6 °F 1013.1 in Calm   1.6 mph 92 % 0.0 in
10:45 15.1 °F 13.8 °F 1013.1 in NNE 1.6 mph 11.3 mph 92 % 0.0 in
10:50 15.2 °F 13.9 °F 1013.1 in Calm   11.3 mph 92 % 0.0 in
10:55 15.3 °F 13.9 °F 1013.1 in Calm   6.4 mph 91 % 0.0 in
11:00 15.6 °F 14.0 °F 1013.1 in Calm   6.4 mph 90 % 0.0 in
11:05 15.8 °F 14.2 °F 1013.1 in Calm   4.8 mph 90 % 0.0 in
11:10 16.1 °F 14.1 °F 1013.1 in Calm   4.8 mph 88 % 0.0 in
11:15 16.3 °F 14.3 °F 1013.1 in Calm   3.2 mph 88 % 0.0 in
11:20 16.6 °F 14.1 °F 1013.1 in Calm   3.2 mph 85 % 0.0 in
11:25 16.7 °F 14.4 °F 1013.1 in Calm   1.6 mph 86 % 0.0 in
11:30 16.9 °F 14.2 °F 1013.1 in Calm   3.2 mph 84 % 0.0 in
11:35 17.1 °F 14.2 °F 1013.1 in Calm   3.2 mph 83 % 0.0 in
11:40 17.1 °F 14.2 °F 1013.1 in Calm   3.2 mph 83 % 0.0 in
11:45 17.1 °F 14.2 °F 1013.1 in Calm   3.2 mph 83 % 0.0 in
11:50 17.0 °F 14.1 °F 1013.1 in Calm   1.6 mph 83 % 0.0 in
11:55 16.9 °F 14.2 °F 1012.8 in Calm     84 % 0.0 in
12:00 17.1 °F 14.6 °F 1012.8 in Calm   1.6 mph 85 % 0.0 in
12:05 17.6 °F 14.3 °F 1012.8 in NW 3.2 mph 11.3 mph 81 % 0.0 in
12:10 17.8 °F 14.5 °F 1012.8 in NW 3.2 mph 11.3 mph 81 % 0.0 in
12:15 18.2 °F 14.7 °F 1012.8 in Calm   9.7 mph 80 % 0.0 in
12:20 18.3 °F 14.4 °F 1012.8 in Calm   3.2 mph 78 % 0.0 in
12:25 18.3 °F 14.4 °F 1012.8 in NNE 1.6 mph 6.4 mph 78 % 0.0 in
12:30 18.4 °F 14.6 °F 1012.8 in Calm   6.4 mph 78 % 0.0 in
12:35 18.4 °F 14.3 °F 1012.8 in Calm   4.8 mph 77 % 0.0 in
12:40 18.4 °F 14.1 °F 1012.8 in Calm   4.8 mph 76 % 0.0 in
12:45 18.3 °F 14.0 °F 1012.8 in NNW 1.6 mph 6.4 mph 76 % 0.0 in
12:50 18.1 °F 14.2 °F 1012.8 in Calm   6.4 mph 78 % 0.0 in
12:55 17.9 °F 14.1 °F 1012.8 in Calm   3.2 mph 78 % 0.0 in
13:00 17.8 °F 13.9 °F 1012.8 in NNW 1.6 mph 6.4 mph 78 % 0.0 in
13:05 17.9 °F 14.4 °F 1012.8 in Calm   6.4 mph 80 % 0.0 in
13:10 18.1 °F 14.3 °F 1012.8 in Calm   6.4 mph 79 % 0.0 in
13:15 18.2 °F 13.7 °F 1012.8 in Calm   6.4 mph 75 % 0.0 in
13:20 18.3 °F 14.0 °F 1012.8 in Calm   6.4 mph 76 % 0.0 in
13:25 18.4 °F 14.7 °F 1012.8 in Calm   4.8 mph 79 % 0.0 in
13:30 18.4 °F 14.3 °F 1012.8 in Calm   4.8 mph 77 % 0.0 in
13:35 18.3 °F 14.4 °F 1012.8 in Calm   4.8 mph 78 % 0.0 in
13:40 18.1 °F 14.4 °F 1012.8 in Calm     79 % 0.0 in
13:45 17.9 °F 14.4 °F 1012.8 in Calm     80 % 0.0 in
13:50 17.7 °F 14.4 °F 1012.8 in Calm     81 % 0.0 in
13:55 17.6 °F 14.3 °F 1012.8 in Calm     81 % 0.0 in
14:00 17.4 °F 14.4 °F 1012.8 in Calm     83 % 0.0 in
14:05 17.3 °F 14.6 °F 1012.8 in Calm     84 % 0.0 in
14:10 17.3 °F 14.6 °F 1012.8 in Calm     84 % 0.0 in
14:15 17.4 °F 14.7 °F 1012.8 in Calm     84 % 0.0 in
14:20 17.5 °F 14.6 °F 1012.8 in Calm   4.8 mph 83 % 0.0 in
14:25 17.7 °F 14.7 °F 1012.8 in Calm   4.8 mph 83 % 0.0 in
14:30 17.8 °F 14.7 °F 1012.8 in Calm   3.2 mph 82 % 0.0 in
14:35 17.8 °F 14.7 °F 1012.8 in Calm   1.6 mph 82 % 0.0 in
14:40 17.8 °F 14.9 °F 1012.8 in Calm   1.6 mph 83 % 0.0 in
14:45 17.9 °F 14.9 °F 1012.8 in Calm     83 % 0.0 in
14:50 17.9 °F 14.9 °F 1012.8 in Calm     83 % 0.0 in
14:55 17.8 °F 14.7 °F 1012.8 in Calm     82 % 0.0 in
15:00 17.8 °F 14.7 °F 1012.8 in Calm     82 % 0.0 in
15:05 17.8 °F 14.7 °F 1012.4 in Calm     82 % 0.0 in
15:10 17.7 °F 14.8 °F 1012.4 in Calm   3.2 mph 83 % 0.0 in
15:15 17.6 °F 14.5 °F 1012.4 in Calm   3.2 mph 82 % 0.0 in
15:20 17.6 °F 14.8 °F 1012.4 in Calm   1.6 mph 84 % 0.0 in
15:25 17.6 °F 14.7 °F 1012.4 in Calm     83 % 0.0 in
15:30 17.7 °F 14.7 °F 1012.4 in Calm     83 % 0.0 in
15:35 17.7 °F 14.6 °F 1012.4 in Calm     82 % 0.0 in
15:40 17.7 °F 14.7 °F 1012.4 in Calm     83 % 0.0 in
15:45 17.6 °F 14.6 °F 1012.4 in Calm   4.8 mph 83 % 0.0 in
15:50 17.6 °F 14.6 °F 1012.8 in Calm   4.8 mph 83 % 0.0 in
15:55 17.5 °F 14.6 °F 1012.8 in Calm     83 % 0.0 in
16:00 17.5 °F 14.8 °F 1012.8 in Calm     84 % 0.0 in
16:05 17.4 °F 14.5 °F 1012.8 in Calm     83 % 0.0 in
16:10 17.4 °F 14.7 °F 1012.8 in Calm   3.2 mph 84 % 0.0 in
16:15 17.4 °F 14.8 °F 1012.8 in Calm   3.2 mph 85 % 0.0 in
16:20 17.4 °F 14.7 °F 1012.8 in Calm     84 % 0.0 in
16:25 17.3 °F 14.6 °F 1012.8 in Calm     84 % 0.0 in
16:30 17.3 °F 14.6 °F 1012.8 in Calm     84 % 0.0 in
16:35 17.2 °F 14.5 °F 1012.8 in Calm     84 % 0.0 in
16:40 17.2 °F 14.5 °F 1012.8 in Calm     84 % 0.0 in
16:45 17.2 °F 14.6 °F 1012.8 in Calm     85 % 0.0 in
16:50 17.2 °F 14.8 °F 1012.8 in Calm     86 % 0.0 in
16:55 17.2 °F 14.7 °F 1012.8 in Calm     85 % 0.0 in
17:00 17.3 °F 14.7 °F 1012.8 in Calm     85 % 0.0 in
17:05 17.2 °F 14.7 °F 1012.8 in Calm     85 % 0.0 in
17:10 17.2 °F 14.7 °F 1012.8 in Calm     85 % 0.0 in
17:15 17.2 °F 14.5 °F 1012.8 in Calm     84 % 0.0 in
17:20 17.2 °F 14.6 °F 1012.8 in Calm     85 % 0.0 in
17:25 17.2 °F 14.6 °F 1012.8 in Calm     85 % 0.0 in
17:30 17.1 °F 14.4 °F 1012.8 in Calm     84 % 0.0 in
17:35 17.1 °F 14.6 °F 1012.8 in Calm     85 % 0.0 in
17:40 17.1 °F 14.6 °F 1013.1 in Calm     85 % 0.0 in
17:45 17.1 °F 14.5 °F 1013.1 in Calm     85 % 0.0 in
17:50 17.1 °F 14.5 °F 1013.1 in Calm     85 % 0.0 in
17:55 17.1 °F 14.5 °F 1013.1 in Calm     85 % 0.0 in
18:00 17.1 °F 14.3 °F 1013.1 in Calm     84 % 0.0 in
18:05 17.1 °F 14.5 °F 1012.8 in Calm     85 % 0.0 in
18:10 17.1 °F 14.4 °F 1012.8 in Calm     84 % 0.0 in
18:15 17.2 °F 14.6 °F 1012.8 in Calm     85 % 0.0 in
18:20 17.3 °F 14.6 °F 1012.8 in Calm     84 % 0.0 in
18:25 17.5 °F 14.6 °F 1012.8 in Calm   1.6 mph 83 % 0.0 in
18:30 17.6 °F 14.7 °F 1012.8 in Calm   1.6 mph 83 % 0.0 in
18:35 17.6 °F 14.5 °F 1012.8 in Calm     82 % 0.0 in
18:40 17.6 °F 14.6 °F 1012.8 in Calm     83 % 0.0 in
18:55 17.2 °F 14.4 °F 1012.8 in Calm   1.6 mph 84 % 0.0 in
19:00 17.1 °F 14.3 °F 1012.8 in Calm   1.6 mph 84 % 0.0 in
19:05 16.9 °F 14.4 °F 1012.8 in Calm     85 % 0.0 in
19:10 16.9 °F 14.3 °F 1012.8 in Calm     85 % 0.0 in
19:15 16.8 °F 14.2 °F 1012.8 in Calm     85 % 0.0 in
19:20 16.7 °F 14.3 °F 1012.8 in Calm     86 % 0.0 in
19:25 16.5 °F 14.2 °F 1012.8 in Calm     86 % 0.0 in
19:30 16.4 °F 14.2 °F 1012.8 in Calm     87 % 0.0 in
19:35 16.3 °F 14.2 °F 1012.8 in Calm     87 % 0.0 in
19:40 16.2 °F 14.1 °F 1012.8 in Calm     87 % 0.0 in
19:45 16.2 °F 14.0 °F 1012.8 in Calm     87 % 0.0 in
19:50 16.1 °F 14.1 °F 1012.8 in Calm     88 % 0.0 in
19:55 16.1 °F 14.1 °F 1012.8 in Calm     88 % 0.0 in
20:00 16.0 °F 14.2 °F 1012.8 in Calm     89 % 0.0 in
20:05 16.0 °F 14.2 °F 1012.8 in Calm     89 % 0.0 in
20:10 15.9 °F 14.3 °F 1012.8 in Calm     90 % 0.0 in
20:15 15.9 °F 14.3 °F 1012.8 in Calm     90 % 0.0 in
20:20 15.9 °F 14.3 °F 1012.8 in Calm     90 % 0.0 in
20:25 15.9 °F 14.3 °F 1012.8 in Calm     90 % 0.0 in
20:30 15.9 °F 14.3 °F 1012.8 in Calm     90 % 0.0 in
20:35 15.9 °F 14.3 °F 1012.8 in Calm     90 % 0.0 in
20:40 15.9 °F 14.1 °F 1012.8 in Calm     89 % 0.0 in
20:45 15.9 °F 14.1 °F 1012.8 in Calm     89 % 0.0 in
20:50 15.9 °F 14.3 °F 1012.8 in Calm     90 % 0.0 in
20:55 15.9 °F 14.3 °F 1012.8 in Calm     90 % 0.0 in
21:00 15.9 °F 14.3 °F 1012.8 in Calm     90 % 0.0 in
21:05 15.8 °F 14.2 °F 1012.8 in Calm     90 % 0.0 in
21:10 15.8 °F 14.2 °F 1012.8 in Calm     90 % 0.0 in
21:15 15.8 °F 14.5 °F 1012.8 in Calm   1.6 mph 92 % 0.0 in
21:20 15.8 °F 14.2 °F 1012.8 in Calm   1.6 mph 90 % 0.0 in
21:25 15.7 °F 14.1 °F 1013.1 in Calm     90 % 0.0 in
21:30 15.7 °F 14.1 °F 1012.8 in Calm     90 % 0.0 in
21:35 15.7 °F 14.1 °F 1012.8 in Calm     90 % 0.0 in
21:40 15.6 °F 14.0 °F 1012.8 in Calm     90 % 0.0 in
21:45 15.6 °F 13.9 °F 1013.1 in Calm     90 % 0.0 in
21:50 15.6 °F 14.1 °F 1013.1 in Calm     91 % 0.0 in
21:55 15.5 °F 14.1 °F 1013.1 in Calm     91 % 0.0 in
22:00 15.5 °F 14.1 °F 1013.1 in Calm     91 % 0.0 in
22:05 15.4 °F 14.0 °F 1013.1 in Calm     91 % 0.0 in
22:10 15.4 °F 13.9 °F 1013.1 in Calm     91 % 0.0 in
22:15 15.3 °F 13.9 °F 1013.1 in Calm     91 % 0.0 in
22:20 15.3 °F 13.8 °F 1013.1 in Calm     91 % 0.0 in
22:25 15.2 °F 13.8 °F 1013.1 in Calm     91 % 0.0 in
22:30 15.2 °F 13.7 °F 1013.1 in Calm     91 % 0.0 in
22:35 15.2 °F 13.9 °F 1013.1 in Calm     92 % 0.0 in
22:40 15.1 °F 13.8 °F 1013.4 in Calm     92 % 0.0 in
22:45 15.1 °F 13.8 °F 1013.4 in Calm     92 % 0.0 in
22:50 15.0 °F 13.7 °F 1013.4 in Calm     92 % 0.0 in
22:55 14.9 °F 13.7 °F 1013.4 in Calm     92 % 0.0 in
23:00 14.9 °F 13.6 °F 1013.4 in Calm     92 % 0.0 in
23:05 14.9 °F 13.6 °F 1013.4 in Calm     92 % 0.0 in
23:10 14.8 °F 13.6 °F 1013.4 in Calm     92 % 0.0 in
23:15 14.8 °F 13.5 °F 1013.4 in Calm     92 % 0.0 in
23:20 14.8 °F 13.5 °F 1013.4 in Calm     92 % 0.0 in
23:25 14.8 °F 13.5 °F 1013.4 in Calm     92 % 0.0 in
23:30 14.7 °F 13.6 °F 1013.4 in Calm     93 % 0.0 in
23:35 14.7 °F 13.6 °F 1013.4 in Calm     93 % 0.0 in
23:40 14.7 °F 13.6 °F 1013.4 in Calm     93 % 0.0 in
23:45 14.6 °F 13.5 °F 1013.4 in Calm     93 % 0.0 in
23:50 14.6 °F 13.4 °F 1013.4 in Calm     93 % 0.0 in
23:55 14.5 °F 13.4 °F 1013.4 in Calm     93 % 0.0 in
Esan sääasema
Terveisin Weather Underground - 3.75 mb

Alkuperäinen skripti  Jim McMurry - jmcmurry@mwt.net Sovitettu myös templatelle  Wim van der Kuil - Leuven-Template.eu

Laitteet joita käytämme:

Sääasema
Davis VP2

Sääasemaohjelma
Cumulus

Sääaseman tietokone
Asus EeePC

Palveluntarjoaja
Suncomet

Davis VP2

Cumulus

Asus EeePC

Suncomet